sensor_id;sensor_type;location;lat;lon;timestamp;P1;durP1;ratioP1;P2;durP2;ratioP2
14663;SDS011;7419;52.184;5.944;2022-08-16T00:02:44;1.91;;;1.40;;
14663;SDS011;7419;52.184;5.944;2022-08-16T00:02:44;1.70;;;1.21;;
14663;SDS011;7419;52.184;5.944;2022-08-16T00:02:49;1.69;;;1.13;;
14663;SDS011;7419;52.184;5.944;2022-08-16T00:03:12;1.63;;;1.53;;
14663;SDS011;7419;52.184;5.944;2022-08-16T00:04:12;1.87;;;1.34;;
14663;SDS011;7419;52.184;5.944;2022-08-16T00:05:13;2.83;;;1.65;;
14663;SDS011;7419;52.184;5.944;2022-08-16T00:06:12;1.93;;;1.50;;
14663;SDS011;7419;52.184;5.944;2022-08-16T00:07:12;1.67;;;1.55;;
14663;SDS011;7419;52.184;5.944;2022-08-16T00:08:12;1.55;;;1.45;;
14663;SDS011;7419;52.184;5.944;2022-08-16T00:09:12;1.73;;;1.58;;
14663;SDS011;7419;52.184;5.944;2022-08-16T00:10:15;2.06;;;1.76;;
14663;SDS011;7419;52.184;5.944;2022-08-16T00:11:12;3.34;;;1.41;;
14663;SDS011;7419;52.184;5.944;2022-08-16T00:12:13;2.03;;;1.41;;
14663;SDS011;7419;52.184;5.944;2022-08-16T00:13:13;1.92;;;1.70;;
14663;SDS011;7419;52.184;5.944;2022-08-16T00:14:14;1.79;;;1.52;;
14663;SDS011;7419;52.184;5.944;2022-08-16T00:15:14;1.74;;;1.39;;
14663;SDS011;7419;52.184;5.944;2022-08-16T00:16:13;1.51;;;1.13;;
14663;SDS011;7419;52.184;5.944;2022-08-16T00:17:13;1.41;;;1.31;;
14663;SDS011;7419;52.184;5.944;2022-08-16T00:18:13;1.59;;;1.49;;
14663;SDS011;7419;52.184;5.944;2022-08-16T00:19:13;1.79;;;1.42;;
14663;SDS011;7419;52.184;5.944;2022-08-16T00:20:13;2.67;;;1.62;;
14663;SDS011;7419;52.184;5.944;2022-08-16T00:21:13;2.99;;;1.65;;
14663;SDS011;7419;52.184;5.944;2022-08-16T00:22:13;1.54;;;1.35;;
14663;SDS011;7419;52.184;5.944;2022-08-16T00:23:13;2.14;;;1.66;;
14663;SDS011;7419;52.184;5.944;2022-08-16T00:24:14;2.58;;;1.69;;
14663;SDS011;7419;52.184;5.944;2022-08-16T00:25:14;1.88;;;1.60;;
14663;SDS011;7419;52.184;5.944;2022-08-16T00:26:13;1.91;;;1.49;;
14663;SDS011;7419;52.184;5.944;2022-08-16T00:27:14;2.35;;;2.17;;
14663;SDS011;7419;52.184;5.944;2022-08-16T00:28:13;1.98;;;1.79;;
14663;SDS011;7419;52.184;5.944;2022-08-16T00:29:14;1.67;;;1.33;;
14663;SDS011;7419;52.184;5.944;2022-08-16T00:30:14;3.44;;;1.57;;
14663;SDS011;7419;52.184;5.944;2022-08-16T00:31:14;1.23;;;1.20;;
14663;SDS011;7419;52.184;5.944;2022-08-16T00:32:14;1.77;;;1.30;;
14663;SDS011;7419;52.184;5.944;2022-08-16T00:33:14;1.84;;;1.70;;
14663;SDS011;7419;52.184;5.944;2022-08-16T00:34:14;3.99;;;2.01;;
14663;SDS011;7419;52.184;5.944;2022-08-16T00:35:15;2.52;;;1.79;;
14663;SDS011;7419;52.184;5.944;2022-08-16T00:36:14;3.50;;;1.69;;
14663;SDS011;7419;52.184;5.944;2022-08-16T00:37:14;2.65;;;1.84;;
14663;SDS011;7419;52.184;5.944;2022-08-16T00:38:14;2.93;;;1.42;;
14663;SDS011;7419;52.184;5.944;2022-08-16T00:39:14;4.14;;;1.32;;
14663;SDS011;7419;52.184;5.944;2022-08-16T00:40:16;2.96;;;1.72;;
14663;SDS011;7419;52.184;5.944;2022-08-16T00:41:14;2.22;;;1.52;;
14663;SDS011;7419;52.184;5.944;2022-08-16T00:42:14;3.33;;;1.83;;
14663;SDS011;7419;52.184;5.944;2022-08-16T00:43:16;2.37;;;1.56;;
14663;SDS011;7419;52.184;5.944;2022-08-16T00:44:15;2.54;;;1.62;;
14663;SDS011;7419;52.184;5.944;2022-08-16T00:45:19;1.94;;;1.77;;
14663;SDS011;7419;52.184;5.944;2022-08-16T00:46:18;4.32;;;2.11;;
14663;SDS011;7419;52.184;5.944;2022-08-16T00:47:14;1.66;;;1.56;;
14663;SDS011;7419;52.184;5.944;2022-08-16T00:48:15;2.33;;;1.99;;
14663;SDS011;7419;52.184;5.944;2022-08-16T00:49:15;2.63;;;2.40;;
14663;SDS011;7419;52.184;5.944;2022-08-16T00:50:15;2.07;;;1.62;;
14663;SDS011;7419;52.184;5.944;2022-08-16T00:51:16;2.31;;;1.40;;
14663;SDS011;7419;52.184;5.944;2022-08-16T00:52:15;3.64;;;1.52;;
14663;SDS011;7419;52.184;5.944;2022-08-16T00:53:15;2.00;;;1.59;;
14663;SDS011;7419;52.184;5.944;2022-08-16T00:54:15;3.47;;;1.53;;
14663;SDS011;7419;52.184;5.944;2022-08-16T00:55:15;1.70;;;1.40;;
14663;SDS011;7419;52.184;5.944;2022-08-16T00:56:16;1.77;;;1.51;;
14663;SDS011;7419;52.184;5.944;2022-08-16T00:57:15;2.34;;;1.81;;
14663;SDS011;7419;52.184;5.944;2022-08-16T00:58:16;3.53;;;1.58;;
14663;SDS011;7419;52.184;5.944;2022-08-16T00:59:16;2.35;;;1.50;;
14663;SDS011;7419;52.184;5.944;2022-08-16T01:00:15;2.12;;;1.38;;
14663;SDS011;7419;52.184;5.944;2022-08-16T01:01:16;2.06;;;1.84;;
14663;SDS011;7419;52.184;5.944;2022-08-16T01:02:15;2.65;;;1.73;;
14663;SDS011;7419;52.184;5.944;2022-08-16T01:03:17;1.66;;;1.56;;
14663;SDS011;7419;52.184;5.944;2022-08-16T01:04:17;1.63;;;1.53;;
14663;SDS011;7419;52.184;5.944;2022-08-16T01:05:15;2.13;;;1.81;;
14663;SDS011;7419;52.184;5.944;2022-08-16T01:06:16;1.71;;;1.57;;
14663;SDS011;7419;52.184;5.944;2022-08-16T01:07:16;2.02;;;1.81;;
14663;SDS011;7419;52.184;5.944;2022-08-16T01:08:17;1.95;;;1.78;;
14663;SDS011;7419;52.184;5.944;2022-08-16T01:09:16;2.22;;;1.90;;
14663;SDS011;7419;52.184;5.944;2022-08-16T01:10:16;3.04;;;1.93;;
14663;SDS011;7419;52.184;5.944;2022-08-16T01:11:16;2.70;;;1.60;;
14663;SDS011;7419;52.184;5.944;2022-08-16T01:12:16;1.91;;;1.53;;
14663;SDS011;7419;52.184;5.944;2022-08-16T01:13:17;1.83;;;1.59;;
14663;SDS011;7419;52.184;5.944;2022-08-16T01:14:17;3.73;;;1.94;;
14663;SDS011;7419;52.184;5.944;2022-08-16T01:15:16;1.91;;;1.66;;
14663;SDS011;7419;52.184;5.944;2022-08-16T01:16:17;2.01;;;1.81;;
14663;SDS011;7419;52.184;5.944;2022-08-16T01:17:16;3.52;;;1.83;;
14663;SDS011;7419;52.184;5.944;2022-08-16T01:18:16;1.77;;;1.65;;
14663;SDS011;7419;52.184;5.944;2022-08-16T01:19:18;1.93;;;1.75;;
14663;SDS011;7419;52.184;5.944;2022-08-16T01:20:16;2.28;;;1.70;;
14663;SDS011;7419;52.184;5.944;2022-08-16T01:21:20;1.77;;;1.25;;
14663;SDS011;7419;52.184;5.944;2022-08-16T01:22:17;1.72;;;1.51;;
14663;SDS011;7419;52.184;5.944;2022-08-16T01:23:19;1.74;;;1.47;;
14663;SDS011;7419;52.184;5.944;2022-08-16T01:24:18;2.08;;;1.56;;
14663;SDS011;7419;52.184;5.944;2022-08-16T01:25:17;2.55;;;1.84;;
14663;SDS011;7419;52.184;5.944;2022-08-16T01:26:16;1.49;;;1.39;;
14663;SDS011;7419;52.184;5.944;2022-08-16T01:27:17;1.86;;;1.59;;
14663;SDS011;7419;52.184;5.944;2022-08-16T01:28:17;1.82;;;1.72;;
14663;SDS011;7419;52.184;5.944;2022-08-16T01:29:19;2.03;;;1.66;;
14663;SDS011;7419;52.184;5.944;2022-08-16T01:30:18;2.59;;;2.13;;
14663;SDS011;7419;52.184;5.944;2022-08-16T01:31:17;2.36;;;1.74;;
14663;SDS011;7419;52.184;5.944;2022-08-16T01:32:17;1.82;;;1.72;;
14663;SDS011;7419;52.184;5.944;2022-08-16T01:33:17;2.68;;;1.40;;
14663;SDS011;7419;52.184;5.944;2022-08-16T01:34:17;2.42;;;1.68;;
14663;SDS011;7419;52.184;5.944;2022-08-16T01:35:18;1.88;;;1.56;;
14663;SDS011;7419;52.184;5.944;2022-08-16T01:36:17;3.01;;;1.92;;
14663;SDS011;7419;52.184;5.944;2022-08-16T01:37:17;2.21;;;1.85;;
14663;SDS011;7419;52.184;5.944;2022-08-16T01:38:21;3.56;;;1.77;;
14663;SDS011;7419;52.184;5.944;2022-08-16T01:39:17;1.74;;;1.38;;
14663;SDS011;7419;52.184;5.944;2022-08-16T01:40:18;2.00;;;1.70;;
14663;SDS011;7419;52.184;5.944;2022-08-16T01:41:21;2.58;;;1.58;;
14663;SDS011;7419;52.184;5.944;2022-08-16T01:42:17;1.63;;;1.44;;
14663;SDS011;7419;52.184;5.944;2022-08-16T01:43:17;1.68;;;1.56;;
14663;SDS011;7419;52.184;5.944;2022-08-16T01:44:17;1.78;;;1.67;;
14663;SDS011;7419;52.184;5.944;2022-08-16T01:45:18;1.91;;;1.80;;
14663;SDS011;7419;52.184;5.944;2022-08-16T01:46:19;1.65;;;1.53;;
14663;SDS011;7419;52.184;5.944;2022-08-16T01:47:17;3.64;;;1.86;;
14663;SDS011;7419;52.184;5.944;2022-08-16T01:48:17;2.33;;;2.06;;
14663;SDS011;7419;52.184;5.944;2022-08-16T01:49:18;2.23;;;1.78;;
14663;SDS011;7419;52.184;5.944;2022-08-16T01:50:18;2.27;;;1.83;;
14663;SDS011;7419;52.184;5.944;2022-08-16T01:51:17;2.52;;;1.85;;
14663;SDS011;7419;52.184;5.944;2022-08-16T01:52:18;2.19;;;1.77;;
14663;SDS011;7419;52.184;5.944;2022-08-16T01:53:18;3.29;;;1.94;;
14663;SDS011;7419;52.184;5.944;2022-08-16T01:54:18;2.59;;;2.06;;
14663;SDS011;7419;52.184;5.944;2022-08-16T01:55:19;3.46;;;1.59;;
14663;SDS011;7419;52.184;5.944;2022-08-16T01:56:18;2.14;;;1.84;;
14663;SDS011;7419;52.184;5.944;2022-08-16T01:57:18;2.86;;;1.77;;
14663;SDS011;7419;52.184;5.944;2022-08-16T01:58:18;3.75;;;2.12;;
14663;SDS011;7419;52.184;5.944;2022-08-16T01:59:18;2.24;;;2.01;;
14663;SDS011;7419;52.184;5.944;2022-08-16T02:00:18;2.51;;;1.76;;
14663;SDS011;7419;52.184;5.944;2022-08-16T02:01:18;3.64;;;1.92;;
14663;SDS011;7419;52.184;5.944;2022-08-16T02:02:18;2.47;;;1.93;;
14663;SDS011;7419;52.184;5.944;2022-08-16T02:03:18;2.98;;;2.15;;
14663;SDS011;7419;52.184;5.944;2022-08-16T02:04:19;2.81;;;1.65;;
14663;SDS011;7419;52.184;5.944;2022-08-16T02:05:18;1.67;;;1.57;;
14663;SDS011;7419;52.184;5.944;2022-08-16T02:06:18;2.83;;;2.09;;
14663;SDS011;7419;52.184;5.944;2022-08-16T02:07:19;2.43;;;1.79;;
14663;SDS011;7419;52.184;5.944;2022-08-16T02:08:18;5.31;;;1.73;;
14663;SDS011;7419;52.184;5.944;2022-08-16T02:09:20;1.77;;;1.58;;
14663;SDS011;7419;52.184;5.944;2022-08-16T02:10:19;2.21;;;1.83;;
14663;SDS011;7419;52.184;5.944;2022-08-16T02:11:19;6.01;;;1.64;;
14663;SDS011;7419;52.184;5.944;2022-08-16T02:12:19;2.11;;;1.91;;
14663;SDS011;7419;52.184;5.944;2022-08-16T02:13:19;2.48;;;2.15;;
14663;SDS011;7419;52.184;5.944;2022-08-16T02:14:20;2.95;;;1.86;;
14663;SDS011;7419;52.184;5.944;2022-08-16T02:15:19;2.24;;;2.03;;
14663;SDS011;7419;52.184;5.944;2022-08-16T02:16:19;2.13;;;1.74;;
14663;SDS011;7419;52.184;5.944;2022-08-16T02:17:19;2.77;;;2.00;;
14663;SDS011;7419;52.184;5.944;2022-08-16T02:18:19;2.67;;;1.87;;
14663;SDS011;7419;52.184;5.944;2022-08-16T02:19:19;2.38;;;1.98;;
14663;SDS011;7419;52.184;5.944;2022-08-16T02:20:19;2.61;;;2.05;;
14663;SDS011;7419;52.184;5.944;2022-08-16T02:21:20;2.52;;;1.83;;
14663;SDS011;7419;52.184;5.944;2022-08-16T02:22:20;2.56;;;2.17;;
14663;SDS011;7419;52.184;5.944;2022-08-16T02:23:20;2.42;;;2.09;;
14663;SDS011;7419;52.184;5.944;2022-08-16T02:24:19;2.67;;;1.98;;
14663;SDS011;7419;52.184;5.944;2022-08-16T02:25:19;1.97;;;1.76;;
14663;SDS011;7419;52.184;5.944;2022-08-16T02:26:20;2.35;;;2.09;;
14663;SDS011;7419;52.184;5.944;2022-08-16T02:27:20;2.19;;;1.94;;
14663;SDS011;7419;52.184;5.944;2022-08-16T02:28:20;2.34;;;1.79;;
14663;SDS011;7419;52.184;5.944;2022-08-16T02:29:20;3.71;;;1.95;;
14663;SDS011;7419;52.184;5.944;2022-08-16T02:30:21;3.44;;;2.06;;
14663;SDS011;7419;52.184;5.944;2022-08-16T02:31:20;4.25;;;2.10;;
14663;SDS011;7419;52.184;5.944;2022-08-16T02:32:20;2.00;;;1.82;;
14663;SDS011;7419;52.184;5.944;2022-08-16T02:33:20;2.57;;;1.92;;
14663;SDS011;7419;52.184;5.944;2022-08-16T02:34:20;4.84;;;2.14;;
14663;SDS011;7419;52.184;5.944;2022-08-16T02:35:21;3.06;;;2.28;;
14663;SDS011;7419;52.184;5.944;2022-08-16T02:36:20;2.03;;;1.89;;
14663;SDS011;7419;52.184;5.944;2022-08-16T02:37:20;2.18;;;1.80;;
14663;SDS011;7419;52.184;5.944;2022-08-16T02:38:20;2.48;;;1.91;;
14663;SDS011;7419;52.184;5.944;2022-08-16T02:39:21;3.74;;;2.17;;
14663;SDS011;7419;52.184;5.944;2022-08-16T02:40:21;3.01;;;2.06;;
14663;SDS011;7419;52.184;5.944;2022-08-16T02:41:20;2.51;;;2.16;;
14663;SDS011;7419;52.184;5.944;2022-08-16T02:42:20;3.14;;;1.79;;
14663;SDS011;7419;52.184;5.944;2022-08-16T02:43:21;2.43;;;2.23;;
14663;SDS011;7419;52.184;5.944;2022-08-16T02:44:21;2.40;;;2.11;;
14663;SDS011;7419;52.184;5.944;2022-08-16T02:45:22;2.28;;;2.08;;
14663;SDS011;7419;52.184;5.944;2022-08-16T02:46:21;2.60;;;2.25;;
14663;SDS011;7419;52.184;5.944;2022-08-16T02:47:21;2.22;;;1.92;;
14663;SDS011;7419;52.184;5.944;2022-08-16T02:48:21;2.23;;;2.03;;
14663;SDS011;7419;52.184;5.944;2022-08-16T02:49:21;2.60;;;2.20;;
14663;SDS011;7419;52.184;5.944;2022-08-16T02:50:21;2.06;;;1.78;;
14663;SDS011;7419;52.184;5.944;2022-08-16T02:51:21;2.01;;;1.81;;
14663;SDS011;7419;52.184;5.944;2022-08-16T02:52:21;2.66;;;1.86;;
14663;SDS011;7419;52.184;5.944;2022-08-16T02:53:21;2.82;;;2.05;;
14663;SDS011;7419;52.184;5.944;2022-08-16T02:54:21;3.74;;;2.04;;
14663;SDS011;7419;52.184;5.944;2022-08-16T02:55:21;3.00;;;1.94;;
14663;SDS011;7419;52.184;5.944;2022-08-16T02:56:21;2.62;;;2.10;;
14663;SDS011;7419;52.184;5.944;2022-08-16T02:57:21;2.10;;;1.99;;
14663;SDS011;7419;52.184;5.944;2022-08-16T02:58:21;2.64;;;2.04;;
14663;SDS011;7419;52.184;5.944;2022-08-16T02:59:21;1.75;;;1.58;;
14663;SDS011;7419;52.184;5.944;2022-08-16T03:00:22;2.38;;;1.87;;
14663;SDS011;7419;52.184;5.944;2022-08-16T03:01:23;3.47;;;2.32;;
14663;SDS011;7419;52.184;5.944;2022-08-16T03:02:22;2.38;;;1.89;;
14663;SDS011;7419;52.184;5.944;2022-08-16T03:03:22;2.51;;;1.79;;
14663;SDS011;7419;52.184;5.944;2022-08-16T03:04:22;2.28;;;1.84;;
14663;SDS011;7419;52.184;5.944;2022-08-16T03:05:22;2.24;;;2.11;;
14663;SDS011;7419;52.184;5.944;2022-08-16T03:06:22;3.36;;;1.85;;
14663;SDS011;7419;52.184;5.944;2022-08-16T03:07:22;2.81;;;2.27;;
14663;SDS011;7419;52.184;5.944;2022-08-16T03:08:23;1.98;;;1.83;;
14663;SDS011;7419;52.184;5.944;2022-08-16T03:09:23;4.34;;;1.75;;
14663;SDS011;7419;52.184;5.944;2022-08-16T03:10:22;2.28;;;1.64;;
14663;SDS011;7419;52.184;5.944;2022-08-16T03:11:22;4.82;;;2.01;;
14663;SDS011;7419;52.184;5.944;2022-08-16T03:12:22;1.93;;;1.69;;
14663;SDS011;7419;52.184;5.944;2022-08-16T03:13:26;2.51;;;1.43;;
14663;SDS011;7419;52.184;5.944;2022-08-16T03:14:22;1.86;;;1.55;;
14663;SDS011;7419;52.184;5.944;2022-08-16T03:15:23;1.74;;;1.64;;
14663;SDS011;7419;52.184;5.944;2022-08-16T03:16:23;2.19;;;2.02;;
14663;SDS011;7419;52.184;5.944;2022-08-16T03:17:23;1.87;;;1.62;;
14663;SDS011;7419;52.184;5.944;2022-08-16T03:18:23;3.13;;;1.59;;
14663;SDS011;7419;52.184;5.944;2022-08-16T03:19:23;3.28;;;1.98;;
14663;SDS011;7419;52.184;5.944;2022-08-16T03:20:23;2.02;;;1.68;;
14663;SDS011;7419;52.184;5.944;2022-08-16T03:21:23;2.23;;;1.70;;
14663;SDS011;7419;52.184;5.944;2022-08-16T03:22:23;2.31;;;2.00;;
14663;SDS011;7419;52.184;5.944;2022-08-16T03:23:23;2.01;;;1.90;;
14663;SDS011;7419;52.184;5.944;2022-08-16T03:24:23;1.74;;;1.62;;
14663;SDS011;7419;52.184;5.944;2022-08-16T03:25:23;2.03;;;1.86;;
14663;SDS011;7419;52.184;5.944;2022-08-16T03:26:23;2.08;;;1.94;;
14663;SDS011;7419;52.184;5.944;2022-08-16T03:27:24;2.49;;;2.23;;
14663;SDS011;7419;52.184;5.944;2022-08-16T03:28:23;2.77;;;2.02;;
14663;SDS011;7419;52.184;5.944;2022-08-16T03:29:23;2.85;;;2.16;;
14663;SDS011;7419;52.184;5.944;2022-08-16T03:30:24;2.91;;;2.01;;
14663;SDS011;7419;52.184;5.944;2022-08-16T03:31:23;2.52;;;1.70;;
14663;SDS011;7419;52.184;5.944;2022-08-16T03:32:23;2.29;;;1.83;;
14663;SDS011;7419;52.184;5.944;2022-08-16T03:33:24;3.22;;;2.23;;
14663;SDS011;7419;52.184;5.944;2022-08-16T03:34:24;2.47;;;1.70;;
14663;SDS011;7419;52.184;5.944;2022-08-16T03:35:25;3.34;;;1.63;;
14663;SDS011;7419;52.184;5.944;2022-08-16T03:36:24;2.44;;;1.51;;
14663;SDS011;7419;52.184;5.944;2022-08-16T03:37:24;4.38;;;1.66;;
14663;SDS011;7419;52.184;5.944;2022-08-16T03:38:25;3.10;;;1.71;;
14663;SDS011;7419;52.184;5.944;2022-08-16T03:39:24;3.00;;;2.35;;
14663;SDS011;7419;52.184;5.944;2022-08-16T03:40:24;2.92;;;1.94;;
14663;SDS011;7419;52.184;5.944;2022-08-16T03:41:24;1.87;;;1.61;;
14663;SDS011;7419;52.184;5.944;2022-08-16T03:42:24;3.03;;;1.93;;
14663;SDS011;7419;52.184;5.944;2022-08-16T03:43:24;1.86;;;1.69;;
14663;SDS011;7419;52.184;5.944;2022-08-16T03:44:24;1.89;;;1.78;;
14663;SDS011;7419;52.184;5.944;2022-08-16T03:45:24;2.04;;;1.93;;
14663;SDS011;7419;52.184;5.944;2022-08-16T03:46:24;2.63;;;1.98;;
14663;SDS011;7419;52.184;5.944;2022-08-16T03:47:25;3.49;;;1.82;;
14663;SDS011;7419;52.184;5.944;2022-08-16T03:48:26;1.97;;;1.72;;
14663;SDS011;7419;52.184;5.944;2022-08-16T03:49:25;1.80;;;1.60;;
14663;SDS011;7419;52.184;5.944;2022-08-16T03:50:25;4.02;;;1.96;;
14663;SDS011;7419;52.184;5.944;2022-08-16T03:51:25;1.58;;;1.41;;
14663;SDS011;7419;52.184;5.944;2022-08-16T03:52:25;3.04;;;2.15;;
14663;SDS011;7419;52.184;5.944;2022-08-16T03:53:25;1.69;;;1.59;;
14663;SDS011;7419;52.184;5.944;2022-08-16T03:54:25;2.55;;;1.81;;
14663;SDS011;7419;52.184;5.944;2022-08-16T03:55:25;2.86;;;1.62;;
14663;SDS011;7419;52.184;5.944;2022-08-16T03:56:25;3.52;;;1.95;;
14663;SDS011;7419;52.184;5.944;2022-08-16T03:57:25;2.38;;;1.68;;
14663;SDS011;7419;52.184;5.944;2022-08-16T03:58:25;2.07;;;1.75;;
14663;SDS011;7419;52.184;5.944;2022-08-16T03:59:26;1.73;;;1.63;;
14663;SDS011;7419;52.184;5.944;2022-08-16T04:00:27;2.05;;;1.62;;
14663;SDS011;7419;52.184;5.944;2022-08-16T04:01:26;1.92;;;1.82;;
14663;SDS011;7419;52.184;5.944;2022-08-16T04:02:26;1.51;;;1.41;;
14663;SDS011;7419;52.184;5.944;2022-08-16T04:03:26;2.63;;;2.17;;
14663;SDS011;7419;52.184;5.944;2022-08-16T04:04:26;2.82;;;1.69;;
14663;SDS011;7419;52.184;5.944;2022-08-16T04:05:26;2.21;;;2.01;;
14663;SDS011;7419;52.184;5.944;2022-08-16T04:06:26;1.66;;;1.56;;
14663;SDS011;7419;52.184;5.944;2022-08-16T04:07:26;3.45;;;1.59;;
14663;SDS011;7419;52.184;5.944;2022-08-16T04:08:26;1.91;;;1.59;;
14663;SDS011;7419;52.184;5.944;2022-08-16T04:09:26;2.33;;;1.84;;
14663;SDS011;7419;52.184;5.944;2022-08-16T04:10:26;2.15;;;1.59;;
14663;SDS011;7419;52.184;5.944;2022-08-16T04:11:51;2.48;;;1.82;;
14663;SDS011;7419;52.184;5.944;2022-08-16T04:12:51;2.99;;;1.92;;
14663;SDS011;7419;52.184;5.944;2022-08-16T04:13:51;2.39;;;1.90;;
14663;SDS011;7419;52.184;5.944;2022-08-16T04:14:51;2.95;;;1.82;;
14663;SDS011;7419;52.184;5.944;2022-08-16T04:15:51;2.02;;;1.86;;
14663;SDS011;7419;52.184;5.944;2022-08-16T04:16:51;1.68;;;1.58;;
14663;SDS011;7419;52.184;5.944;2022-08-16T04:17:51;2.28;;;1.74;;
14663;SDS011;7419;52.184;5.944;2022-08-16T04:18:51;2.24;;;2.04;;
14663;SDS011;7419;52.184;5.944;2022-08-16T04:19:51;1.85;;;1.75;;
14663;SDS011;7419;52.184;5.944;2022-08-16T04:20:51;2.93;;;1.89;;
14663;SDS011;7419;52.184;5.944;2022-08-16T04:21:51;2.34;;;1.69;;
14663;SDS011;7419;52.184;5.944;2022-08-16T04:22:51;1.90;;;1.68;;
14663;SDS011;7419;52.184;5.944;2022-08-16T04:23:51;2.04;;;1.35;;
14663;SDS011;7419;52.184;5.944;2022-08-16T04:24:51;1.46;;;1.34;;
14663;SDS011;7419;52.184;5.944;2022-08-16T04:25:51;1.87;;;1.54;;
14663;SDS011;7419;52.184;5.944;2022-08-16T04:26:51;2.26;;;1.75;;
14663;SDS011;7419;52.184;5.944;2022-08-16T04:27:51;1.96;;;1.79;;
14663;SDS011;7419;52.184;5.944;2022-08-16T04:28:51;1.41;;;1.30;;
14663;SDS011;7419;52.184;5.944;2022-08-16T04:29:52;2.03;;;1.66;;
14663;SDS011;7419;52.184;5.944;2022-08-16T04:30:52;1.97;;;1.81;;
14663;SDS011;7419;52.184;5.944;2022-08-16T04:31:52;2.01;;;1.67;;
14663;SDS011;7419;52.184;5.944;2022-08-16T04:32:52;1.96;;;1.83;;
14663;SDS011;7419;52.184;5.944;2022-08-16T04:33:52;2.38;;;1.78;;
14663;SDS011;7419;52.184;5.944;2022-08-16T04:34:52;3.10;;;2.12;;
14663;SDS011;7419;52.184;5.944;2022-08-16T04:35:52;2.62;;;1.83;;
14663;SDS011;7419;52.184;5.944;2022-08-16T04:36:52;2.46;;;1.75;;
14663;SDS011;7419;52.184;5.944;2022-08-16T04:37:52;2.06;;;1.72;;
14663;SDS011;7419;52.184;5.944;2022-08-16T04:38:52;2.23;;;1.99;;
14663;SDS011;7419;52.184;5.944;2022-08-16T04:39:52;4.71;;;2.23;;
14663;SDS011;7419;52.184;5.944;2022-08-16T04:40:52;2.67;;;1.95;;
14663;SDS011;7419;52.184;5.944;2022-08-16T04:41:52;1.97;;;1.83;;
14663;SDS011;7419;52.184;5.944;2022-08-16T04:42:52;2.54;;;2.00;;
14663;SDS011;7419;52.184;5.944;2022-08-16T04:43:52;2.30;;;2.14;;
14663;SDS011;7419;52.184;5.944;2022-08-16T04:44:53;2.18;;;2.00;;
14663;SDS011;7419;52.184;5.944;2022-08-16T04:45:52;2.06;;;1.87;;
14663;SDS011;7419;52.184;5.944;2022-08-16T04:46:53;2.66;;;2.06;;
14663;SDS011;7419;52.184;5.944;2022-08-16T04:47:53;2.04;;;1.80;;
14663;SDS011;7419;52.184;5.944;2022-08-16T04:48:53;3.63;;;2.50;;
14663;SDS011;7419;52.184;5.944;2022-08-16T04:49:53;2.76;;;1.96;;
14663;SDS011;7419;52.184;5.944;2022-08-16T04:50:53;2.30;;;2.11;;
14663;SDS011;7419;52.184;5.944;2022-08-16T04:51:53;3.26;;;2.32;;
14663;SDS011;7419;52.184;5.944;2022-08-16T04:52:53;1.94;;;1.83;;
14663;SDS011;7419;52.184;5.944;2022-08-16T04:53:53;4.22;;;2.31;;
14663;SDS011;7419;52.184;5.944;2022-08-16T04:54:53;4.15;;;2.30;;
14663;SDS011;7419;52.184;5.944;2022-08-16T04:55:53;3.16;;;2.14;;
14663;SDS011;7419;52.184;5.944;2022-08-16T04:56:53;4.18;;;3.06;;
14663;SDS011;7419;52.184;5.944;2022-08-16T04:57:54;3.80;;;3.12;;
14663;SDS011;7419;52.184;5.944;2022-08-16T04:58:53;4.75;;;3.02;;
14663;SDS011;7419;52.184;5.944;2022-08-16T04:59:53;5.50;;;3.75;;
14663;SDS011;7419;52.184;5.944;2022-08-16T05:00:53;6.04;;;3.66;;
14663;SDS011;7419;52.184;5.944;2022-08-16T05:01:53;5.80;;;3.66;;
14663;SDS011;7419;52.184;5.944;2022-08-16T05:02:54;4.64;;;3.89;;
14663;SDS011;7419;52.184;5.944;2022-08-16T05:03:54;5.61;;;3.94;;
14663;SDS011;7419;52.184;5.944;2022-08-16T05:04:54;5.31;;;4.26;;
14663;SDS011;7419;52.184;5.944;2022-08-16T05:05:54;6.94;;;4.36;;
14663;SDS011;7419;52.184;5.944;2022-08-16T05:06:54;5.80;;;4.30;;
14663;SDS011;7419;52.184;5.944;2022-08-16T05:07:54;8.22;;;4.74;;
14663;SDS011;7419;52.184;5.944;2022-08-16T05:08:54;8.07;;;5.01;;
14663;SDS011;7419;52.184;5.944;2022-08-16T05:09:54;5.72;;;4.49;;
14663;SDS011;7419;52.184;5.944;2022-08-16T05:10:54;6.85;;;4.37;;
14663;SDS011;7419;52.184;5.944;2022-08-16T05:11:54;5.13;;;3.41;;
14663;SDS011;7419;52.184;5.944;2022-08-16T05:12:54;7.76;;;4.81;;
14663;SDS011;7419;52.184;5.944;2022-08-16T05:13:54;6.80;;;4.92;;
14663;SDS011;7419;52.184;5.944;2022-08-16T05:14:54;9.59;;;5.12;;
14663;SDS011;7419;52.184;5.944;2022-08-16T05:15:54;9.24;;;4.90;;
14663;SDS011;7419;52.184;5.944;2022-08-16T05:16:54;5.43;;;4.20;;
14663;SDS011;7419;52.184;5.944;2022-08-16T05:17:54;4.94;;;4.13;;
14663;SDS011;7419;52.184;5.944;2022-08-16T05:18:55;6.19;;;4.08;;
14663;SDS011;7419;52.184;5.944;2022-08-16T05:19:55;5.31;;;3.99;;
14663;SDS011;7419;52.184;5.944;2022-08-16T05:20:55;6.56;;;4.32;;
14663;SDS011;7419;52.184;5.944;2022-08-16T05:21:55;5.16;;;4.10;;
14663;SDS011;7419;52.184;5.944;2022-08-16T05:22:55;5.29;;;3.61;;
14663;SDS011;7419;52.184;5.944;2022-08-16T05:23:55;5.21;;;4.25;;
14663;SDS011;7419;52.184;5.944;2022-08-16T05:24:55;5.33;;;3.54;;
14663;SDS011;7419;52.184;5.944;2022-08-16T05:25:55;7.09;;;4.79;;
14663;SDS011;7419;52.184;5.944;2022-08-16T05:26:55;6.01;;;3.78;;
14663;SDS011;7419;52.184;5.944;2022-08-16T05:27:55;6.18;;;3.98;;
14663;SDS011;7419;52.184;5.944;2022-08-16T05:28:55;6.24;;;4.29;;
14663;SDS011;7419;52.184;5.944;2022-08-16T05:29:55;5.16;;;4.08;;
14663;SDS011;7419;52.184;5.944;2022-08-16T05:30:55;7.49;;;4.49;;
14663;SDS011;7419;52.184;5.944;2022-08-16T05:31:55;5.09;;;4.01;;
14663;SDS011;7419;52.184;5.944;2022-08-16T05:32:55;6.27;;;3.79;;
14663;SDS011;7419;52.184;5.944;2022-08-16T05:33:56;5.59;;;3.15;;
14663;SDS011;7419;52.184;5.944;2022-08-16T05:34:56;3.92;;;3.02;;
14663;SDS011;7419;52.184;5.944;2022-08-16T05:35:55;6.52;;;4.14;;
14663;SDS011;7419;52.184;5.944;2022-08-16T05:36:56;6.36;;;3.95;;
14663;SDS011;7419;52.184;5.944;2022-08-16T05:37:56;6.68;;;4.11;;
14663;SDS011;7419;52.184;5.944;2022-08-16T05:38:56;5.22;;;3.86;;
14663;SDS011;7419;52.184;5.944;2022-08-16T05:39:56;5.44;;;3.89;;
14663;SDS011;7419;52.184;5.944;2022-08-16T05:40:56;6.55;;;3.57;;
14663;SDS011;7419;52.184;5.944;2022-08-16T05:41:56;5.62;;;3.90;;
14663;SDS011;7419;52.184;5.944;2022-08-16T05:42:56;6.65;;;3.79;;
14663;SDS011;7419;52.184;5.944;2022-08-16T05:43:56;7.23;;;4.05;;
14663;SDS011;7419;52.184;5.944;2022-08-16T05:44:56;5.65;;;4.34;;
14663;SDS011;7419;52.184;5.944;2022-08-16T05:45:56;6.68;;;4.52;;
14663;SDS011;7419;52.184;5.944;2022-08-16T05:46:58;5.59;;;4.02;;
14663;SDS011;7419;52.184;5.944;2022-08-16T05:47:56;7.02;;;4.86;;
14663;SDS011;7419;52.184;5.944;2022-08-16T05:48:57;6.15;;;4.43;;
14663;SDS011;7419;52.184;5.944;2022-08-16T05:49:56;6.72;;;4.51;;
14663;SDS011;7419;52.184;5.944;2022-08-16T05:50:56;6.91;;;4.93;;
14663;SDS011;7419;52.184;5.944;2022-08-16T05:51:56;9.79;;;5.47;;
14663;SDS011;7419;52.184;5.944;2022-08-16T05:52:57;8.37;;;5.11;;
14663;SDS011;7419;52.184;5.944;2022-08-16T05:53:57;5.61;;;4.41;;
14663;SDS011;7419;52.184;5.944;2022-08-16T05:54:57;6.34;;;5.33;;
14663;SDS011;7419;52.184;5.944;2022-08-16T05:55:57;5.65;;;4.38;;
14663;SDS011;7419;52.184;5.944;2022-08-16T05:56:57;7.65;;;4.71;;
14663;SDS011;7419;52.184;5.944;2022-08-16T05:57:57;8.26;;;4.97;;
14663;SDS011;7419;52.184;5.944;2022-08-16T05:58:57;5.69;;;4.48;;
14663;SDS011;7419;52.184;5.944;2022-08-16T05:59:57;5.59;;;4.13;;
14663;SDS011;7419;52.184;5.944;2022-08-16T06:00:57;6.44;;;4.95;;
14663;SDS011;7419;52.184;5.944;2022-08-16T06:01:57;6.59;;;4.99;;
14663;SDS011;7419;52.184;5.944;2022-08-16T06:02:57;5.93;;;4.87;;
14663;SDS011;7419;52.184;5.944;2022-08-16T06:03:57;7.53;;;4.73;;
14663;SDS011;7419;52.184;5.944;2022-08-16T06:04:57;5.64;;;4.01;;
14663;SDS011;7419;52.184;5.944;2022-08-16T06:05:57;6.73;;;4.57;;
14663;SDS011;7419;52.184;5.944;2022-08-16T06:06:57;7.54;;;4.77;;